createdAt,value
2018-07-22T04:37:51.811Z,99967.79
2018-07-22T04:40:20.268Z,99969.49
2018-07-22T04:42:48.955Z,99967.49
2018-07-22T04:45:17.513Z,99966.33
2018-07-22T04:47:46.311Z,99971.23
2018-07-22T04:50:14.839Z,99970.25
2018-07-22T04:52:45.371Z,99970.39
2018-07-22T04:55:23.183Z,99981.00
2018-07-22T04:57:52.445Z,99981.10
2018-07-22T05:00:20.875Z,99981.32
2018-07-22T05:02:49.694Z,99991.41
2018-07-22T05:05:18.195Z,99994.19
2018-07-22T05:07:46.658Z,99990.28
2018-07-22T05:10:15.153Z,99986.99
2018-07-22T05:12:43.632Z,99993.13
2018-07-22T05:15:12.199Z,99990.93
2018-07-22T05:17:40.683Z,99993.92
2018-07-22T05:20:10.535Z,99997.69
2018-07-22T05:22:39.046Z,99997.11
2018-07-22T05:25:07.477Z,99995.83
2018-07-22T05:27:36.183Z,99997.81
2018-07-22T05:30:04.731Z,100001.20
2018-07-22T05:32:33.356Z,100004.50
2018-07-22T05:35:01.968Z,100004.42
2018-07-22T05:37:30.872Z,100006.40
2018-07-22T05:40:01.018Z,100010.20
2018-07-22T05:42:29.657Z,100010.70
2018-07-22T05:44:58.316Z,100014.63
2018-07-22T05:47:27.623Z,100016.89
2018-07-22T05:49:56.159Z,100015.05
2018-07-22T05:52:24.841Z,100010.05
2018-07-22T05:58:04.420Z,100017.88
2018-07-22T06:00:34.026Z,100015.83
2018-07-22T06:03:03.129Z,100019.01
2018-07-22T06:05:31.802Z,100010.27
2018-07-22T06:08:00.579Z,100019.63
2018-07-22T06:10:29.080Z,100014.37
2018-07-22T06:12:58.794Z,100022.41
2018-07-22T06:15:33.013Z,100021.67
2018-07-22T06:18:01.431Z,100024.52
2018-07-22T06:20:29.895Z,100015.22
2018-07-22T06:22:58.692Z,100023.21
2018-07-22T06:25:27.319Z,100023.55
2018-07-22T06:27:56.986Z,100021.56
2018-07-22T06:30:25.675Z,100019.19
2018-07-22T06:32:54.227Z,100019.55
2018-07-22T06:38:15.655Z,100017.72
2018-07-22T06:40:44.376Z,100023.66
2018-07-22T06:43:13.939Z,100027.14
2018-07-22T06:45:42.671Z,100022.78
2018-07-22T06:48:11.805Z,100018.39
2018-07-22T06:50:40.352Z,100025.45
2018-07-22T06:53:08.989Z,100024.10
2018-07-22T06:55:37.824Z,100020.23
2018-07-22T06:58:06.475Z,100026.14
2018-07-22T07:00:34.989Z,100027.00
2018-07-22T07:03:03.587Z,100028.93
2018-07-22T07:05:32.169Z,100029.63
2018-07-22T07:08:00.706Z,100026.21
2018-07-22T07:10:29.149Z,100031.32
2018-07-22T07:12:57.724Z,100032.24
2018-07-22T07:15:31.418Z,100032.09
2018-07-22T07:18:00.002Z,100036.13
2018-07-22T07:20:28.881Z,100035.78
2018-07-22T07:22:58.056Z,100032.92
2018-07-22T07:25:49.272Z,100042.04
2018-07-22T07:28:18.329Z,100044.44
2018-07-22T07:30:47.149Z,100047.56
2018-07-22T07:33:16.117Z,100051.81
2018-07-22T07:35:45.167Z,100052.68
2018-07-22T07:38:13.724Z,100051.64
2018-07-22T07:40:42.433Z,100051.58
2018-07-22T07:43:10.962Z,100051.86
2018-07-22T07:45:39.475Z,100047.22
2018-07-22T07:48:08.320Z,100048.63
2018-07-22T07:50:37.568Z,100054.67
2018-07-22T07:53:06.089Z,100057.07
2018-07-22T07:55:35.508Z,100052.92
2018-07-22T07:58:04.262Z,100062.19
2018-07-22T08:00:33.503Z,100059.38
2018-07-22T08:03:02.078Z,100056.67
2018-07-22T08:05:30.966Z,100061.66
2018-07-22T08:07:59.707Z,100056.89
2018-07-22T08:10:28.783Z,100061.51
2018-07-22T08:12:57.332Z,100063.38
2018-07-22T08:15:40.015Z,100066.09
2018-07-22T08:18:08.844Z,100063.08
2018-07-22T08:20:37.414Z,100067.91
2018-07-22T08:23:07.850Z,100068.28
2018-07-22T08:25:37.349Z,100072.41
2018-07-22T08:28:06.422Z,100074.31
2018-07-22T08:30:35.299Z,100076.62
2018-07-22T08:33:04.238Z,100074.75
2018-07-22T08:35:38.300Z,100085.58
2018-07-22T08:38:11.216Z,100084.07
2018-07-22T08:40:40.077Z,100085.73
2018-07-22T08:43:08.911Z,100088.65
2018-07-22T08:45:37.451Z,100091.08
2018-07-22T08:48:06.606Z,100090.76
2018-07-22T08:50:35.355Z,100093.09
2018-07-22T08:53:04.126Z,100095.38
2018-07-22T08:55:32.943Z,100095.22
2018-07-22T08:58:02.342Z,100092.52
2018-07-22T09:00:30.792Z,100095.22
2018-07-22T09:03:00.666Z,100091.89
2018-07-22T09:05:47.861Z,100092.95
2018-07-22T09:08:16.507Z,100096.54
2018-07-22T09:10:45.050Z,100096.84
2018-07-22T09:13:14.853Z,100099.39
2018-07-22T09:15:43.441Z,100097.20
2018-07-22T09:18:12.199Z,100109.47
2018-07-22T09:20:40.859Z,100106.98
2018-07-22T09:23:10.598Z,100110.34
2018-07-22T09:25:39.448Z,100110.71
2018-07-22T09:28:08.384Z,100108.48
2018-07-22T09:30:38.027Z,100110.34
2018-07-22T09:33:08.203Z,100112.64
2018-07-22T09:35:37.284Z,100110.20
2018-07-22T09:38:06.037Z,100121.24
2018-07-22T09:40:34.961Z,100115.72
2018-07-22T09:43:03.698Z,100120.00
2018-07-22T09:45:37.478Z,100121.72
2018-07-22T09:48:06.582Z,100120.16
2018-07-22T09:50:35.889Z,100113.30
2018-07-22T09:53:05.068Z,100113.74
2018-07-22T09:55:43.106Z,100117.80
2018-07-22T09:58:12.694Z,100115.57
2018-07-22T10:00:46.808Z,100115.59
2018-07-22T10:03:15.440Z,100122.66
2018-07-22T10:05:44.570Z,100121.67
2018-07-22T10:08:13.740Z,100120.16
2018-07-22T10:10:43.106Z,100123.49
2018-07-22T10:13:11.752Z,100120.20
2018-07-22T10:15:41.470Z,100119.50
2018-07-22T10:18:10.488Z,100121.25
2018-07-22T10:20:39.214Z,100114.61
2018-07-22T10:23:08.556Z,100117.05
2018-07-22T10:25:47.458Z,100115.97
2018-07-22T10:31:07.618Z,100123.43
2018-07-22T10:33:36.301Z,100126.36
2018-07-22T10:36:05.328Z,100125.71
2018-07-22T10:38:34.249Z,100127.80
2018-07-22T10:41:03.589Z,100118.84
2018-07-22T10:43:33.744Z,100118.20
2018-07-22T10:46:03.386Z,100123.46
2018-07-22T10:48:37.858Z,100121.34
2018-07-22T10:51:06.655Z,100121.95
2018-07-22T10:53:44.670Z,100126.60
2018-07-22T10:56:32.454Z,100126.33
2018-07-22T10:59:01.040Z,100129.19
2018-07-22T11:01:34.008Z,100124.05
2018-07-22T11:04:02.570Z,100123.80
2018-07-22T11:06:37.134Z,100125.58
2018-07-22T11:09:08.891Z,100124.80
2018-07-22T11:11:37.731Z,100122.55
2018-07-22T11:14:06.219Z,100126.19
2018-07-22T11:16:34.959Z,100125.20
2018-07-22T11:19:03.579Z,100126.16
2018-07-22T11:21:32.682Z,100131.15
2018-07-22T11:24:04.269Z,100124.59
2018-07-22T11:26:33.034Z,100129.64
2018-07-22T11:29:01.530Z,100124.06
2018-07-22T11:31:30.258Z,100127.20
2018-07-22T11:33:59.013Z,100125.31
2018-07-22T11:36:32.666Z,100123.48
2018-07-22T11:39:03.220Z,100122.93
2018-07-22T11:41:31.815Z,100125.48
2018-07-22T11:44:00.426Z,100130.00
2018-07-22T11:46:28.941Z,100124.03
2018-07-22T11:48:57.533Z,100127.03
2018-07-22T11:51:26.275Z,100129.80
2018-07-22T11:53:55.173Z,100122.73
2018-07-22T11:56:23.921Z,100124.03
2018-07-22T11:58:54.066Z,100121.42
2018-07-22T12:01:23.515Z,100122.36
2018-07-22T12:03:53.266Z,100119.44
2018-07-22T12:06:21.926Z,100122.14
2018-07-22T12:08:50.764Z,100120.95
2018-07-22T12:11:19.879Z,100116.48
2018-07-22T12:13:48.691Z,100119.97
2018-07-22T12:16:17.831Z,100118.28
2018-07-22T12:18:46.683Z,100117.23
2018-07-22T12:21:15.386Z,100113.02
2018-07-22T12:23:48.885Z,100115.19
2018-07-22T12:26:19.471Z,100119.27
2018-07-22T12:28:48.088Z,100115.57
2018-07-22T12:31:18.507Z,100115.57
2018-07-22T12:33:46.972Z,100113.45
2018-07-22T12:36:15.569Z,100114.86
2018-07-22T12:38:44.157Z,100113.39
2018-07-22T12:41:12.939Z,100110.96
2018-07-22T12:43:41.771Z,100106.97
2018-07-22T12:46:15.379Z,100103.81
2018-07-22T12:48:44.361Z,100102.05
2018-07-22T12:51:13.574Z,100099.07
2018-07-22T12:53:42.448Z,100098.20
2018-07-22T12:56:11.177Z,100092.80
2018-07-22T12:58:40.223Z,100089.52
2018-07-22T13:01:09.161Z,100090.44
2018-07-22T13:03:38.581Z,100089.55
2018-07-22T13:06:07.277Z,100088.61
2018-07-22T13:08:36.099Z,100082.34
2018-07-22T13:11:04.536Z,100085.06
2018-07-22T13:13:33.178Z,100076.11
2018-07-22T13:16:01.794Z,100074.93
2018-07-22T13:18:30.466Z,100067.75
2018-07-22T13:20:59.104Z,100075.12
2018-07-22T13:23:27.610Z,100068.91
2018-07-22T13:25:56.211Z,100063.28
2018-07-22T13:28:24.607Z,100068.53
2018-07-22T13:30:53.109Z,100067.95
2018-07-22T13:33:21.521Z,100068.35
2018-07-22T13:35:49.963Z,100067.17
2018-07-22T13:38:18.836Z,100065.03
2018-07-22T13:40:48.218Z,100066.37
2018-07-22T13:43:16.732Z,100065.95
2018-07-22T13:45:45.905Z,100067.56
2018-07-22T13:48:14.309Z,100064.98
2018-07-22T13:50:42.727Z,100064.30
2018-07-22T13:53:11.247Z,100060.77
2018-07-22T13:55:39.825Z,100058.25
2018-07-22T13:58:08.225Z,100057.50
2018-07-22T14:00:37.201Z,100060.42
2018-07-22T14:03:05.712Z,100054.37
2018-07-22T14:05:34.166Z,100052.23
2018-07-22T14:08:02.642Z,100050.68
2018-07-22T14:10:31.345Z,100049.34
2018-07-22T14:12:59.808Z,100052.83
2018-07-22T14:15:28.506Z,100051.45
2018-07-22T14:17:57.342Z,100055.69
2018-07-22T14:20:26.032Z,100052.78
2018-07-22T14:22:54.381Z,100056.48
2018-07-22T14:25:23.302Z,100048.14
2018-07-22T14:27:51.913Z,100050.25
2018-07-22T14:30:20.325Z,100049.64
2018-07-22T14:32:48.717Z,100046.36
2018-07-22T14:35:17.337Z,100051.23
2018-07-22T14:37:45.823Z,100051.05
2018-07-22T14:40:14.367Z,100049.53
2018-07-22T14:42:42.719Z,100048.41
2018-07-22T14:45:11.272Z,100044.20
2018-07-22T14:47:39.698Z,100041.95
2018-07-22T14:50:08.383Z,100039.53
2018-07-22T14:52:36.836Z,100044.59
2018-07-22T14:55:05.323Z,100043.45
2018-07-22T14:57:33.793Z,100042.64
2018-07-22T15:00:02.292Z,100036.63
2018-07-22T15:02:30.689Z,100041.27
2018-07-22T15:04:59.323Z,100036.98
2018-07-22T15:07:27.832Z,100047.13
2018-07-22T15:09:56.280Z,100043.80
2018-07-22T15:12:24.757Z,100041.66
2018-07-22T15:14:53.516Z,100037.96
2018-07-22T15:17:21.912Z,100042.62
2018-07-22T15:19:50.328Z,100042.23
2018-07-22T15:22:18.775Z,100038.30
2018-07-22T15:24:47.306Z,100038.69
2018-07-22T15:27:21.222Z,100037.52
2018-07-22T15:29:58.020Z,100044.09
2018-07-22T15:32:28.031Z,100036.14
2018-07-22T15:34:59.037Z,100039.03
2018-07-22T15:37:28.171Z,100039.81
2018-07-22T15:39:57.569Z,100043.69
2018-07-22T15:42:30.490Z,100042.12
2018-07-22T15:45:14.992Z,100042.12
2018-07-22T15:47:55.033Z,100047.01
2018-07-22T15:50:30.842Z,100048.34
2018-07-22T15:53:06.252Z,100050.09
2018-07-22T15:55:47.163Z,100051.03
2018-07-22T15:58:23.117Z,100044.24
2018-07-22T16:00:54.739Z,100041.88
2018-07-22T16:03:31.711Z,100044.78
2018-07-22T16:06:09.933Z,100041.50
2018-07-22T16:11:30.049Z,100046.19
2018-07-22T16:14:03.511Z,100045.97
2018-07-22T16:16:42.346Z,100049.86
2018-07-22T16:22:43.665Z,100048.30
2018-07-22T16:55:15.417Z,100030.77
2018-07-22T16:57:47.375Z,100041.47
2018-07-22T17:00:23.289Z,100042.62
2018-07-22T17:02:56.737Z,100040.43
2018-07-22T17:05:35.429Z,100042.36
2018-07-22T17:08:10.205Z,100042.13
2018-07-22T17:10:41.365Z,100040.75
2018-07-22T17:13:13.157Z,100050.06
2018-07-22T17:16:00.663Z,100048.71
2018-07-22T17:18:32.052Z,100052.17
2018-07-22T17:21:08.496Z,100058.03
2018-07-22T17:23:44.439Z,100070.83
2018-07-22T17:26:14.563Z,100075.32
2018-07-22T17:29:00.546Z,100082.89
2018-07-22T17:31:35.750Z,100086.89
2018-07-22T17:39:42.906Z,100099.39
2018-07-22T17:45:26.896Z,100092.55
2018-07-22T18:03:33.856Z,100088.87
2018-07-22T18:11:40.090Z,100090.98
2018-07-22T18:14:09.342Z,100095.22
2018-07-22T18:16:42.719Z,100095.30
2018-07-22T18:19:12.233Z,100096.29
2018-07-22T18:21:41.723Z,100097.22
2018-07-22T18:24:12.171Z,100094.63
2018-07-22T18:26:48.714Z,100100.23
2018-07-22T18:29:23.455Z,100106.22
2018-07-22T18:31:52.622Z,100110.88
2018-07-22T18:34:25.528Z,100110.34
2018-07-22T18:37:05.189Z,100111.38
2018-07-22T18:39:45.388Z,100113.11
2018-07-22T18:42:21.051Z,100112.80
2018-07-22T18:44:57.339Z,100115.88
2018-07-22T18:47:27.893Z,100112.28
2018-07-22T18:49:57.810Z,100110.23
2018-07-22T18:52:27.752Z,100113.82
2018-07-22T18:54:59.378Z,100113.33
2018-07-22T18:57:34.297Z,100116.11
2018-07-22T19:00:05.614Z,100121.70
2018-07-22T19:02:34.828Z,100126.56
2018-07-22T19:05:09.843Z,100124.94
2018-07-22T19:07:42.860Z,100126.30
2018-07-22T19:10:19.052Z,100126.52
2018-07-22T19:13:01.094Z,100124.33
2018-07-22T19:15:42.011Z,100127.81
2018-07-22T19:18:18.461Z,100130.89
2018-07-22T19:20:49.411Z,100126.40
2018-07-22T19:23:25.615Z,100137.19
2018-07-22T19:28:58.785Z,100137.50
2018-07-22T19:31:39.322Z,100134.60
2018-07-22T19:37:17.166Z,100154.59
2018-07-22T19:39:59.585Z,100155.13
2018-07-22T19:45:19.829Z,100151.37
2018-07-22T19:53:20.236Z,100153.03
2018-07-22T19:56:07.596Z,100157.89
2018-07-22T19:58:44.792Z,100153.40
2018-07-22T20:01:15.068Z,100158.05
2018-07-22T20:06:24.368Z,100156.28
2018-07-22T20:08:57.513Z,100162.59
2018-07-22T20:11:27.796Z,100158.83
2018-07-22T20:16:50.079Z,100158.94
2018-07-22T20:19:25.383Z,100166.02
2018-07-22T20:21:57.735Z,100159.83
2018-07-22T20:24:31.297Z,100161.48
2018-07-22T20:27:01.150Z,100166.24
2018-07-22T20:29:37.110Z,100168.95
2018-07-22T20:32:08.565Z,100170.52
2018-07-22T20:34:40.418Z,100169.75
2018-07-22T20:37:15.845Z,100180.59
2018-07-22T20:39:45.462Z,100179.09
2018-07-22T20:42:15.077Z,100182.38
2018-07-22T20:44:47.929Z,100185.16
2018-07-22T20:47:17.426Z,100188.31
2018-07-22T20:49:54.099Z,100184.61
2018-07-22T20:52:27.802Z,100183.19
2018-07-22T20:55:01.472Z,100191.36
2018-07-22T20:57:31.537Z,100190.07
2018-07-22T21:00:01.049Z,100187.58
2018-07-22T21:02:30.548Z,100182.02
2018-07-22T21:05:08.001Z,100184.73
2018-07-22T21:07:45.467Z,100186.33
2018-07-22T21:10:22.209Z,100189.03
2018-07-22T21:13:05.707Z,100189.19
2018-07-22T21:15:35.722Z,100194.86
2018-07-22T21:18:05.907Z,100195.88
2018-07-22T21:20:36.543Z,100197.23
2018-07-22T21:23:07.777Z,100194.72
2018-07-22T21:25:40.469Z,100196.29
2018-07-22T21:28:24.274Z,100190.66
2018-07-22T21:30:56.667Z,100194.16
2018-07-22T21:33:30.015Z,100197.02
2018-07-22T21:36:14.413Z,100202.22
2018-07-22T21:38:52.097Z,100194.81
2018-07-22T21:41:23.133Z,100200.78
2018-07-22T21:43:53.633Z,100197.16
2018-07-22T21:46:23.005Z,100201.30
2018-07-22T21:48:55.566Z,100201.08
2018-07-22T21:51:27.261Z,100207.05
2018-07-22T21:53:58.265Z,100201.73
2018-07-22T21:56:34.057Z,100205.98
2018-07-22T21:59:06.696Z,100203.63
2018-07-22T22:01:44.149Z,100210.27
2018-07-22T22:06:54.065Z,100214.97
2018-07-22T22:12:09.287Z,100217.17
2018-07-22T22:14:40.190Z,100221.81
2018-07-22T22:17:20.318Z,100217.76
2018-07-22T22:19:53.001Z,100218.45
2018-07-22T22:25:07.758Z,100231.98
2018-07-22T22:27:38.509Z,100224.52
2018-07-22T22:30:09.611Z,100227.73
2018-07-22T22:32:43.022Z,100224.45
2018-07-22T22:35:19.038Z,100227.44
2018-07-22T22:37:48.465Z,100226.37
2018-07-22T22:40:17.689Z,100223.66
2018-07-22T22:42:47.688Z,100222.45
2018-07-22T22:45:35.102Z,100221.02
2018-07-22T22:48:04.505Z,100223.48
2018-07-22T22:50:32.985Z,100222.74
2018-07-22T22:53:01.511Z,100219.68
2018-07-22T22:55:29.990Z,100220.09
2018-07-22T22:58:09.806Z,100221.39
2018-07-22T23:00:38.306Z,100218.24
2018-07-22T23:03:06.823Z,100221.31
2018-07-22T23:05:35.351Z,100219.21
2018-07-22T23:08:03.985Z,100219.98
2018-07-22T23:10:32.575Z,100212.08
2018-07-22T23:15:28.800Z,100214.16
2018-07-22T23:20:25.073Z,100208.94
2018-07-22T23:22:53.580Z,100205.63
2018-07-22T23:25:27.489Z,100204.91
2018-07-22T23:27:55.988Z,100202.20
2018-07-22T23:30:24.580Z,100204.77
2018-07-22T23:32:53.036Z,100202.70
2018-07-22T23:35:21.644Z,100197.16
2018-07-22T23:37:50.200Z,100202.75
2018-07-22T23:40:18.696Z,100197.70
2018-07-22T23:42:47.341Z,100205.67
2018-07-22T23:45:20.861Z,100200.31
2018-07-22T23:47:49.554Z,100202.46
2018-07-22T23:50:18.269Z,100195.81
2018-07-22T23:52:46.772Z,100198.16
2018-07-22T23:55:15.322Z,100195.94
2018-07-22T23:57:43.812Z,100196.21
